sensor_id;sensor_type;location;lat;lon;timestamp;pressure;altitude;pressure_sealevel;temperature;humidity
21182;BME280;10749;46.296;7.524;2023-10-08T00:00:45;96041.34;;;17.79;39.30
21182;BME280;10749;46.296;7.524;2023-10-08T00:03:19;96033.06;;;17.74;39.42
21182;BME280;10749;46.296;7.524;2023-10-08T00:05:45;96035.13;;;17.72;38.60
21182;BME280;10749;46.296;7.524;2023-10-08T00:08:11;96041.03;;;17.68;39.00
21182;BME280;10749;46.296;7.524;2023-10-08T00:10:37;96042.69;;;17.69;38.74
21182;BME280;10749;46.296;7.524;2023-10-08T00:13:09;96033.19;;;17.66;39.22
21182;BME280;10749;46.296;7.524;2023-10-08T00:15:36;96034.63;;;17.62;39.38
21182;BME280;10749;46.296;7.524;2023-10-08T00:18:05;96032.88;;;17.54;39.59
21182;BME280;10749;46.296;7.524;2023-10-08T00:20:37;96041.66;;;17.48;39.49
21182;BME280;10749;46.296;7.524;2023-10-08T00:23:19;96032.75;;;17.41;39.19
21182;BME280;10749;46.296;7.524;2023-10-08T00:25:45;96034.44;;;17.42;39.45
21182;BME280;10749;46.296;7.524;2023-10-08T00:28:12;96033.16;;;17.38;39.45
21182;BME280;10749;46.296;7.524;2023-10-08T00:30:42;96034.56;;;17.34;39.50
21182;BME280;10749;46.296;7.524;2023-10-08T00:33:10;96026.28;;;17.29;39.62
21182;BME280;10749;46.296;7.524;2023-10-08T00:35:40;96027.69;;;17.25;40.02
21182;BME280;10749;46.296;7.524;2023-10-08T00:38:07;96029.84;;;17.15;40.26
21182;BME280;10749;46.296;7.524;2023-10-08T00:40:40;96023.59;;;17.08;40.68
21182;BME280;10749;46.296;7.524;2023-10-08T00:43:11;96027.94;;;17.09;39.93
21182;BME280;10749;46.296;7.524;2023-10-08T00:45:37;96025.44;;;17.07;40.26
21182;BME280;10749;46.296;7.524;2023-10-08T00:48:10;96026.66;;;17.05;40.38
21182;BME280;10749;46.296;7.524;2023-10-08T00:50:42;96024.25;;;17.10;40.25
21182;BME280;10749;46.296;7.524;2023-10-08T00:53:09;96022.78;;;17.07;40.48
21182;BME280;10749;46.296;7.524;2023-10-08T00:55:42;96028.34;;;17.06;40.71
21182;BME280;10749;46.296;7.524;2023-10-08T00:58:15;96028.34;;;17.06;40.58
21182;BME280;10749;46.296;7.524;2023-10-08T01:00:50;96019.91;;;17.09;40.27
21182;BME280;10749;46.296;7.524;2023-10-08T01:03:18;96020.94;;;17.08;40.58
21182;BME280;10749;46.296;7.524;2023-10-08T01:05:44;96019.09;;;17.08;40.65
21182;BME280;10749;46.296;7.524;2023-10-08T01:08:14;96017.88;;;17.11;40.90
21182;BME280;10749;46.296;7.524;2023-10-08T01:10:47;96009.28;;;17.16;40.45
21182;BME280;10749;46.296;7.524;2023-10-08T01:13:13;96012.78;;;17.16;40.48
21182;BME280;10749;46.296;7.524;2023-10-08T01:15:44;96005.41;;;17.18;40.09
21182;BME280;10749;46.296;7.524;2023-10-08T01:18:10;96010.28;;;17.15;40.57
21182;BME280;10749;46.296;7.524;2023-10-08T01:20:44;96010.75;;;17.18;40.22
21182;BME280;10749;46.296;7.524;2023-10-08T01:23:12;96008.69;;;17.20;40.43
21182;BME280;10749;46.296;7.524;2023-10-08T01:25:47;96009.72;;;17.19;40.36
21182;BME280;10749;46.296;7.524;2023-10-08T01:28:48;96011.13;;;17.15;39.88
21182;BME280;10749;46.296;7.524;2023-10-08T01:31:13;96010.66;;;17.12;40.20
21182;BME280;10749;46.296;7.524;2023-10-08T01:33:40;96012.28;;;17.06;40.39
21182;BME280;10749;46.296;7.524;2023-10-08T01:36:12;96002.78;;;17.03;40.88
21182;BME280;10749;46.296;7.524;2023-10-08T01:38:38;96000.28;;;17.02;40.79
21182;BME280;10749;46.296;7.524;2023-10-08T01:41:04;96001.06;;;16.96;40.79
21182;BME280;10749;46.296;7.524;2023-10-08T01:43:36;95997.75;;;16.94;40.86
21182;BME280;10749;46.296;7.524;2023-10-08T01:46:03;95996.22;;;16.85;41.27
21182;BME280;10749;46.296;7.524;2023-10-08T01:48:29;95994.75;;;16.82;41.16
21182;BME280;10749;46.296;7.524;2023-10-08T01:51:02;95996.72;;;16.74;41.74
21182;BME280;10749;46.296;7.524;2023-10-08T01:53:30;96002.00;;;16.67;41.71
21182;BME280;10749;46.296;7.524;2023-10-08T01:55:56;95996.84;;;16.66;41.78
21182;BME280;10749;46.296;7.524;2023-10-08T01:58:23;95991.75;;;16.71;41.30
21182;BME280;10749;46.296;7.524;2023-10-08T02:00:49;95986.03;;;16.74;41.64
21182;BME280;10749;46.296;7.524;2023-10-08T02:03:15;95985.66;;;16.77;41.52
21182;BME280;10749;46.296;7.524;2023-10-08T02:05:43;95997.41;;;16.82;41.80
21182;BME280;10749;46.296;7.524;2023-10-08T02:08:09;95978.78;;;16.89;41.46
21182;BME280;10749;46.296;7.524;2023-10-08T02:10:37;95980.06;;;16.93;41.49
21182;BME280;10749;46.296;7.524;2023-10-08T02:13:03;95987.97;;;17.01;41.25
21182;BME280;10749;46.296;7.524;2023-10-08T02:15:30;95984.50;;;17.07;41.26
21182;BME280;10749;46.296;7.524;2023-10-08T02:17:55;95979.97;;;17.07;40.75
21182;BME280;10749;46.296;7.524;2023-10-08T02:20:20;95985.47;;;16.99;40.98
21182;BME280;10749;46.296;7.524;2023-10-08T02:22:47;95988.69;;;16.95;41.43
21182;BME280;10749;46.296;7.524;2023-10-08T02:25:14;95989.50;;;16.89;40.79
21182;BME280;10749;46.296;7.524;2023-10-08T02:27:40;95985.28;;;16.80;41.36
21182;BME280;10749;46.296;7.524;2023-10-08T02:30:05;95989.97;;;16.78;41.02
21182;BME280;10749;46.296;7.524;2023-10-08T02:32:34;95994.88;;;16.74;41.35
21182;BME280;10749;46.296;7.524;2023-10-08T02:34:59;95995.88;;;16.73;41.12
21182;BME280;10749;46.296;7.524;2023-10-08T02:37:25;95989.66;;;16.66;41.41
21182;BME280;10749;46.296;7.524;2023-10-08T02:39:52;95996.56;;;16.60;42.09
21182;BME280;10749;46.296;7.524;2023-10-08T02:42:18;95996.28;;;16.55;42.00
21182;BME280;10749;46.296;7.524;2023-10-08T02:44:43;95998.97;;;16.55;41.68
21182;BME280;10749;46.296;7.524;2023-10-08T02:47:10;96000.97;;;16.53;41.61
21182;BME280;10749;46.296;7.524;2023-10-08T02:49:47;95999.91;;;16.48;41.82
21182;BME280;10749;46.296;7.524;2023-10-08T02:52:18;95997.69;;;16.51;41.39
21182;BME280;10749;46.296;7.524;2023-10-08T02:54:43;96005.06;;;16.49;41.67
21182;BME280;10749;46.296;7.524;2023-10-08T02:57:08;96001.38;;;16.50;42.03
21182;BME280;10749;46.296;7.524;2023-10-08T02:59:41;95998.03;;;16.48;42.05
21182;BME280;10749;46.296;7.524;2023-10-08T03:02:08;95996.41;;;16.47;42.33
21182;BME280;10749;46.296;7.524;2023-10-08T03:04:40;95995.13;;;16.43;42.42
21182;BME280;10749;46.296;7.524;2023-10-08T03:07:05;95997.59;;;16.45;42.22
21182;BME280;10749;46.296;7.524;2023-10-08T03:09:37;95996.75;;;16.44;42.59
21182;BME280;10749;46.296;7.524;2023-10-08T03:12:07;95992.47;;;16.43;42.48
21182;BME280;10749;46.296;7.524;2023-10-08T03:14:34;95985.72;;;16.47;42.57
21182;BME280;10749;46.296;7.524;2023-10-08T03:17:13;95989.84;;;16.50;42.72
21182;BME280;10749;46.296;7.524;2023-10-08T03:19:44;95998.97;;;16.55;42.49
21182;BME280;10749;46.296;7.524;2023-10-08T03:22:10;95988.53;;;16.60;42.34
21182;BME280;10749;46.296;7.524;2023-10-08T03:24:37;95991.88;;;16.63;42.33
21182;BME280;10749;46.296;7.524;2023-10-08T03:27:04;95996.84;;;16.66;42.07
21182;BME280;10749;46.296;7.524;2023-10-08T03:29:41;95999.06;;;16.62;42.35
21182;BME280;10749;46.296;7.524;2023-10-08T03:32:08;96004.41;;;16.62;42.57
21182;BME280;10749;46.296;7.524;2023-10-08T03:34:38;95998.88;;;16.64;42.69
21182;BME280;10749;46.296;7.524;2023-10-08T03:37:07;95997.28;;;16.69;42.47
21182;BME280;10749;46.296;7.524;2023-10-08T03:39:33;96007.78;;;16.71;42.28
21182;BME280;10749;46.296;7.524;2023-10-08T03:42:22;96002.44;;;16.71;42.51
21182;BME280;10749;46.296;7.524;2023-10-08T03:44:49;96002.84;;;16.68;42.63
21182;BME280;10749;46.296;7.524;2023-10-08T03:47:21;96009.00;;;16.68;42.42
21182;BME280;10749;46.296;7.524;2023-10-08T03:49:52;96013.25;;;16.63;42.50
21182;BME280;10749;46.296;7.524;2023-10-08T03:52:19;96014.56;;;16.52;42.97
21182;BME280;10749;46.296;7.524;2023-10-08T03:54:50;96015.75;;;16.49;42.12
21182;BME280;10749;46.296;7.524;2023-10-08T03:57:30;96021.19;;;16.41;42.55
21182;BME280;10749;46.296;7.524;2023-10-08T04:00:10;96012.28;;;16.34;42.80
21182;BME280;10749;46.296;7.524;2023-10-08T04:02:43;96015.06;;;16.26;43.03
21182;BME280;10749;46.296;7.524;2023-10-08T04:05:19;96005.47;;;16.17;43.27
21182;BME280;10749;46.296;7.524;2023-10-08T04:07:45;96015.31;;;16.16;43.33
21182;BME280;10749;46.296;7.524;2023-10-08T04:10:23;96016.88;;;16.11;43.32
21182;BME280;10749;46.296;7.524;2023-10-08T04:13:14;96013.97;;;16.06;43.33
21182;BME280;10749;46.296;7.524;2023-10-08T04:15:41;96008.97;;;16.03;43.41
21182;BME280;10749;46.296;7.524;2023-10-08T04:18:11;96013.31;;;16.04;43.61
21182;BME280;10749;46.296;7.524;2023-10-08T04:20:38;96015.59;;;16.07;43.34
21182;BME280;10749;46.296;7.524;2023-10-08T04:23:10;96014.59;;;16.08;43.34
21182;BME280;10749;46.296;7.524;2023-10-08T04:25:47;96007.59;;;16.07;43.64
21182;BME280;10749;46.296;7.524;2023-10-08T04:28:20;96007.97;;;16.04;43.87
21182;BME280;10749;46.296;7.524;2023-10-08T04:30:47;96005.97;;;16.06;44.15
21182;BME280;10749;46.296;7.524;2023-10-08T04:33:13;96017.47;;;16.06;43.82
21182;BME280;10749;46.296;7.524;2023-10-08T04:35:44;96006.59;;;16.08;43.24
21182;BME280;10749;46.296;7.524;2023-10-08T04:38:14;96009.34;;;16.00;43.51
21182;BME280;10749;46.296;7.524;2023-10-08T04:40:42;96003.09;;;15.93;43.85
21182;BME280;10749;46.296;7.524;2023-10-08T04:43:14;96008.44;;;15.93;43.77
21182;BME280;10749;46.296;7.524;2023-10-08T04:45:40;96012.13;;;15.92;44.06
21182;BME280;10749;46.296;7.524;2023-10-08T04:48:06;96007.53;;;15.86;44.46
21182;BME280;10749;46.296;7.524;2023-10-08T04:50:35;96008.81;;;15.90;44.02
21182;BME280;10749;46.296;7.524;2023-10-08T04:53:02;96004.19;;;15.84;44.21
21182;BME280;10749;46.296;7.524;2023-10-08T04:55:34;96004.97;;;15.78;44.39
21182;BME280;10749;46.296;7.524;2023-10-08T04:57:59;95998.13;;;15.75;44.61
21182;BME280;10749;46.296;7.524;2023-10-08T05:00:25;96000.97;;;15.74;44.58
21182;BME280;10749;46.296;7.524;2023-10-08T05:03:09;96006.97;;;15.76;44.68
21182;BME280;10749;46.296;7.524;2023-10-08T05:05:40;96002.84;;;15.73;44.54
21182;BME280;10749;46.296;7.524;2023-10-08T05:08:33;96007.13;;;15.74;44.97
21182;BME280;10749;46.296;7.524;2023-10-08T05:11:10;96008.16;;;15.73;45.02
21182;BME280;10749;46.296;7.524;2023-10-08T05:13:50;96000.34;;;15.72;44.18
21182;BME280;10749;46.296;7.524;2023-10-08T05:16:27;96000.34;;;15.72;44.46
21182;BME280;10749;46.296;7.524;2023-10-08T05:19:09;96016.53;;;15.70;44.36
21182;BME280;10749;46.296;7.524;2023-10-08T05:22:00;96004.00;;;15.70;44.66
21182;BME280;10749;46.296;7.524;2023-10-08T05:24:46;96008.34;;;15.72;44.89
21182;BME280;10749;46.296;7.524;2023-10-08T05:27:36;96001.06;;;15.65;45.07
21182;BME280;10749;46.296;7.524;2023-10-08T05:30:15;96010.44;;;15.61;44.84
21182;BME280;10749;46.296;7.524;2023-10-08T05:32:45;96010.19;;;15.56;45.18
21182;BME280;10749;46.296;7.524;2023-10-08T05:35:38;96012.47;;;15.59;45.30
21182;BME280;10749;46.296;7.524;2023-10-08T05:38:11;96012.75;;;15.64;44.74
21182;BME280;10749;46.296;7.524;2023-10-08T05:40:57;96010.09;;;15.64;44.31
21182;BME280;10749;46.296;7.524;2023-10-08T05:43:29;96011.94;;;15.64;44.44
21182;BME280;10749;46.296;7.524;2023-10-08T05:46:08;96007.59;;;15.63;44.99
21182;BME280;10749;46.296;7.524;2023-10-08T05:51:34;96024.53;;;15.70;44.98
21182;BME280;10749;46.296;7.524;2023-10-08T05:54:23;96020.47;;;15.74;44.86
21182;BME280;10749;46.296;7.524;2023-10-08T05:56:55;96024.97;;;15.74;45.20
21182;BME280;10749;46.296;7.524;2023-10-08T05:59:47;96032.81;;;15.75;45.09
21182;BME280;10749;46.296;7.524;2023-10-08T06:02:30;96032.00;;;15.75;45.42
21182;BME280;10749;46.296;7.524;2023-10-08T06:05:06;96035.66;;;15.74;45.39
21182;BME280;10749;46.296;7.524;2023-10-08T06:07:42;96039.00;;;15.76;45.39
21182;BME280;10749;46.296;7.524;2023-10-08T06:10:31;96043.50;;;15.75;45.60
21182;BME280;10749;46.296;7.524;2023-10-08T06:18:28;96057.00;;;15.74;45.49
21182;BME280;10749;46.296;7.524;2023-10-08T06:21:04;96059.06;;;15.72;45.54
21182;BME280;10749;46.296;7.524;2023-10-08T06:23:34;96053.06;;;15.69;45.57
21182;BME280;10749;46.296;7.524;2023-10-08T06:26:00;96060.25;;;15.69;45.23
21182;BME280;10749;46.296;7.524;2023-10-08T06:28:35;96048.75;;;15.68;45.50
21182;BME280;10749;46.296;7.524;2023-10-08T06:31:01;96061.06;;;15.69;45.44
21182;BME280;10749;46.296;7.524;2023-10-08T06:33:28;96062.09;;;15.68;45.71
21182;BME280;10749;46.296;7.524;2023-10-08T06:35:58;96058.59;;;15.68;46.06
21182;BME280;10749;46.296;7.524;2023-10-08T06:38:47;96058.22;;;15.71;45.76
21182;BME280;10749;46.296;7.524;2023-10-08T06:41:16;96058.03;;;15.73;45.76
21182;BME280;10749;46.296;7.524;2023-10-08T06:43:46;96060.72;;;15.73;46.16
21182;BME280;10749;46.296;7.524;2023-10-08T06:46:30;96059.63;;;15.82;46.19
21182;BME280;10749;46.296;7.524;2023-10-08T06:49:02;96066.16;;;15.79;46.25
21182;BME280;10749;46.296;7.524;2023-10-08T06:51:28;96064.97;;;15.82;45.80
21182;BME280;10749;46.296;7.524;2023-10-08T06:53:55;96069.94;;;15.85;45.18
21182;BME280;10749;46.296;7.524;2023-10-08T06:56:23;96062.56;;;15.87;45.86
21182;BME280;10749;46.296;7.524;2023-10-08T06:58:49;96065.44;;;15.85;46.16
21182;BME280;10749;46.296;7.524;2023-10-08T07:01:19;96060.56;;;15.89;45.45
21182;BME280;10749;46.296;7.524;2023-10-08T07:03:49;96054.38;;;15.88;44.62
21182;BME280;10749;46.296;7.524;2023-10-08T07:06:16;96060.94;;;15.86;44.94
21182;BME280;10749;46.296;7.524;2023-10-08T07:08:43;96062.56;;;15.87;45.12
21182;BME280;10749;46.296;7.524;2023-10-08T07:11:12;96057.59;;;15.84;45.58
21182;BME280;10749;46.296;7.524;2023-10-08T07:13:37;96052.25;;;15.84;46.05
21182;BME280;10749;46.296;7.524;2023-10-08T07:16:05;96063.13;;;15.97;46.33
21182;BME280;10749;46.296;7.524;2023-10-08T07:18:36;96062.66;;;16.08;46.39
21182;BME280;10749;46.296;7.524;2023-10-08T07:21:02;96062.22;;;16.19;45.76
21182;BME280;10749;46.296;7.524;2023-10-08T07:23:30;96064.03;;;16.33;45.76
21182;BME280;10749;46.296;7.524;2023-10-08T07:26:00;96061.94;;;16.43;45.81
21182;BME280;10749;46.296;7.524;2023-10-08T07:28:42;96068.44;;;16.55;45.94
21182;BME280;10749;46.296;7.524;2023-10-08T07:31:19;96069.94;;;16.73;45.49
21182;BME280;10749;46.296;7.524;2023-10-08T07:34:05;96060.41;;;16.85;45.50
21182;BME280;10749;46.296;7.524;2023-10-08T07:36:45;96073.53;;;17.01;45.57
21182;BME280;10749;46.296;7.524;2023-10-08T07:39:12;96065.84;;;17.13;45.76
21182;BME280;10749;46.296;7.524;2023-10-08T07:41:49;96067.44;;;17.28;45.92
21182;BME280;10749;46.296;7.524;2023-10-08T07:44:15;96061.19;;;17.42;45.34
21182;BME280;10749;46.296;7.524;2023-10-08T07:46:40;96068.69;;;17.53;45.12
21182;BME280;10749;46.296;7.524;2023-10-08T07:49:05;96058.53;;;17.64;45.43
21182;BME280;10749;46.296;7.524;2023-10-08T07:51:31;96061.06;;;17.72;45.62
21182;BME280;10749;46.296;7.524;2023-10-08T07:53:56;96070.22;;;17.84;45.38
21182;BME280;10749;46.296;7.524;2023-10-08T07:56:22;96060.41;;;17.97;45.65
21182;BME280;10749;46.296;7.524;2023-10-08T07:58:49;96062.13;;;18.05;44.93
21182;BME280;10749;46.296;7.524;2023-10-08T08:01:14;96068.75;;;18.09;45.00
21182;BME280;10749;46.296;7.524;2023-10-08T08:03:40;96060.53;;;18.17;45.26
21182;BME280;10749;46.296;7.524;2023-10-08T08:06:07;96057.31;;;18.28;45.39
21182;BME280;10749;46.296;7.524;2023-10-08T08:08:35;96054.69;;;18.41;45.34
21182;BME280;10749;46.296;7.524;2023-10-08T08:11:10;96052.94;;;18.55;45.12
21182;BME280;10749;46.296;7.524;2023-10-08T08:13:39;96059.16;;;18.69;45.27
21182;BME280;10749;46.296;7.524;2023-10-08T08:16:07;96056.72;;;18.74;45.10
21182;BME280;10749;46.296;7.524;2023-10-08T08:18:45;96053.44;;;18.78;45.31
21182;BME280;10749;46.296;7.524;2023-10-08T08:21:12;96050.16;;;18.83;45.46
21182;BME280;10749;46.296;7.524;2023-10-08T08:23:47;96052.25;;;18.94;45.22
21182;BME280;10749;46.296;7.524;2023-10-08T08:26:23;96054.75;;;19.02;45.06
21182;BME280;10749;46.296;7.524;2023-10-08T08:29:04;96058.06;;;19.11;44.95
21182;BME280;10749;46.296;7.524;2023-10-08T08:31:30;96055.84;;;19.27;45.31
21182;BME280;10749;46.296;7.524;2023-10-08T08:34:01;96050.31;;;19.55;45.62
21182;BME280;10749;46.296;7.524;2023-10-08T08:36:29;96049.47;;;19.68;44.97
21182;BME280;10749;46.296;7.524;2023-10-08T08:38:54;96051.13;;;19.75;44.95
21182;BME280;10749;46.296;7.524;2023-10-08T08:41:20;96049.06;;;19.84;45.15
21182;BME280;10749;46.296;7.524;2023-10-08T08:43:53;96042.88;;;19.90;44.80
21182;BME280;10749;46.296;7.524;2023-10-08T08:46:34;96042.88;;;20.03;45.25
21182;BME280;10749;46.296;7.524;2023-10-08T08:49:07;96040.38;;;20.08;44.95
21182;BME280;10749;46.296;7.524;2023-10-08T08:51:34;96036.63;;;20.09;45.03
21182;BME280;10749;46.296;7.524;2023-10-08T08:54:01;96033.97;;;20.03;44.98
21182;BME280;10749;46.296;7.524;2023-10-08T08:56:33;96040.38;;;20.08;45.08
21182;BME280;10749;46.296;7.524;2023-10-08T08:58:59;96030.19;;;20.17;45.07
21182;BME280;10749;46.296;7.524;2023-10-08T09:01:25;96027.09;;;20.26;44.87
21182;BME280;10749;46.296;7.524;2023-10-08T09:03:51;96023.16;;;20.36;44.99
21182;BME280;10749;46.296;7.524;2023-10-08T09:06:17;96018.00;;;20.41;45.18
21182;BME280;10749;46.296;7.524;2023-10-08T09:08:42;96014.66;;;20.45;45.16
21182;BME280;10749;46.296;7.524;2023-10-08T09:11:18;96017.53;;;20.50;45.11
21182;BME280;10749;46.296;7.524;2023-10-08T09:13:43;96009.84;;;20.60;44.72
21182;BME280;10749;46.296;7.524;2023-10-08T09:16:15;96014.56;;;20.65;44.69
21182;BME280;10749;46.296;7.524;2023-10-08T09:18:42;95998.44;;;20.65;44.97
21182;BME280;10749;46.296;7.524;2023-10-08T09:21:14;96000.91;;;20.66;44.75
21182;BME280;10749;46.296;7.524;2023-10-08T09:23:40;95995.06;;;20.76;44.64
21182;BME280;10749;46.296;7.524;2023-10-08T09:26:10;95988.78;;;20.89;44.60
21182;BME280;10749;46.296;7.524;2023-10-08T09:28:37;95987.50;;;20.98;44.82
21182;BME280;10749;46.296;7.524;2023-10-08T09:31:04;95980.19;;;21.05;44.51
21182;BME280;10749;46.296;7.524;2023-10-08T09:33:32;95978.94;;;21.14;44.51
21182;BME280;10749;46.296;7.524;2023-10-08T09:35:58;95978.97;;;21.07;44.35
21182;BME280;10749;46.296;7.524;2023-10-08T09:38:28;95971.69;;;21.14;44.42
21182;BME280;10749;46.296;7.524;2023-10-08T09:40:56;95965.41;;;21.21;44.41
21182;BME280;10749;46.296;7.524;2023-10-08T09:43:22;95974.03;;;21.29;44.22
21182;BME280;10749;46.296;7.524;2023-10-08T09:45:57;95969.84;;;21.40;44.23
21182;BME280;10749;46.296;7.524;2023-10-08T09:48:25;95965.66;;;21.44;44.12
21182;BME280;10749;46.296;7.524;2023-10-08T09:50:53;95959.38;;;21.50;43.99
21182;BME280;10749;46.296;7.524;2023-10-08T09:53:28;95955.09;;;21.67;44.17
21182;BME280;10749;46.296;7.524;2023-10-08T09:55:57;95962.75;;;21.88;44.43
21182;BME280;10749;46.296;7.524;2023-10-08T09:58:25;95961.31;;;22.11;44.21
21182;BME280;10749;46.296;7.524;2023-10-08T10:00:54;95957.78;;;22.28;44.46
21182;BME280;10749;46.296;7.524;2023-10-08T10:03:21;95956.94;;;22.46;44.30
21182;BME280;10749;46.296;7.524;2023-10-08T10:05:48;95952.81;;;22.62;44.41
21182;BME280;10749;46.296;7.524;2023-10-08T10:08:17;95950.78;;;22.75;44.21
21182;BME280;10749;46.296;7.524;2023-10-08T10:10:43;95954.13;;;22.89;44.13
21182;BME280;10749;46.296;7.524;2023-10-08T10:13:15;95948.78;;;23.00;44.07
21182;BME280;10749;46.296;7.524;2023-10-08T10:15:42;95947.63;;;23.08;43.81
21182;BME280;10749;46.296;7.524;2023-10-08T10:18:08;95945.53;;;23.10;43.74
21182;BME280;10749;46.296;7.524;2023-10-08T10:20:34;95940.38;;;23.20;43.51
21182;BME280;10749;46.296;7.524;2023-10-08T10:26:02;95936.59;;;23.51;43.50
21182;BME280;10749;46.296;7.524;2023-10-08T10:28:29;95942.34;;;23.66;43.11
21182;BME280;10749;46.296;7.524;2023-10-08T10:30:55;95938.00;;;23.88;43.34
21182;BME280;10749;46.296;7.524;2023-10-08T10:33:29;95937.28;;;24.05;43.51
21182;BME280;10749;46.296;7.524;2023-10-08T10:35:55;95926.91;;;24.13;43.04
21182;BME280;10749;46.296;7.524;2023-10-08T10:38:20;95928.09;;;24.29;43.15
21182;BME280;10749;46.296;7.524;2023-10-08T10:40:49;95926.84;;;24.48;43.67
21182;BME280;10749;46.296;7.524;2023-10-08T10:43:24;95922.31;;;24.65;43.39
21182;BME280;10749;46.296;7.524;2023-10-08T10:45:58;95922.03;;;24.78;43.53
21182;BME280;10749;46.296;7.524;2023-10-08T10:48:23;95911.28;;;24.95;43.51
21182;BME280;10749;46.296;7.524;2023-10-08T10:50:51;95917.78;;;25.11;43.13
21182;BME280;10749;46.296;7.524;2023-10-08T10:53:32;95907.03;;;25.16;42.78
21182;BME280;10749;46.296;7.524;2023-10-08T10:56:00;95909.44;;;25.29;43.29
21182;BME280;10749;46.296;7.524;2023-10-08T10:58:31;95910.72;;;25.43;43.24
21182;BME280;10749;46.296;7.524;2023-10-08T11:01:04;95898.31;;;25.47;42.62
21182;BME280;10749;46.296;7.524;2023-10-08T11:03:41;95893.34;;;25.56;42.31
21182;BME280;10749;46.296;7.524;2023-10-08T11:06:07;95894.81;;;25.63;42.01
21182;BME280;10749;46.296;7.524;2023-10-08T11:08:40;95888.50;;;25.75;42.25
21182;BME280;10749;46.296;7.524;2023-10-08T11:11:11;95888.19;;;25.93;42.19
21182;BME280;10749;46.296;7.524;2023-10-08T11:13:36;95882.69;;;26.04;42.02
21182;BME280;10749;46.296;7.524;2023-10-08T11:16:06;95878.19;;;26.15;41.99
21182;BME280;10749;46.296;7.524;2023-10-08T11:18:34;95863.06;;;26.19;41.41
21182;BME280;10749;46.296;7.524;2023-10-08T11:21:08;95861.56;;;26.28;41.43
21182;BME280;10749;46.296;7.524;2023-10-08T11:23:47;95869.94;;;26.48;41.83
21182;BME280;10749;46.296;7.524;2023-10-08T11:26:18;95856.50;;;26.58;41.08
21182;BME280;10749;46.296;7.524;2023-10-08T11:28:44;95856.59;;;26.69;40.56
21182;BME280;10749;46.296;7.524;2023-10-08T11:31:13;95856.19;;;26.82;40.63
21182;BME280;10749;46.296;7.524;2023-10-08T11:33:43;95851.50;;;26.99;40.53
21182;BME280;10749;46.296;7.524;2023-10-08T11:36:22;95846.75;;;27.16;41.19
21182;BME280;10749;46.296;7.524;2023-10-08T11:38:59;95834.31;;;27.25;40.76
21182;BME280;10749;46.296;7.524;2023-10-08T11:41:33;95835.44;;;27.29;40.10
21182;BME280;10749;46.296;7.524;2023-10-08T11:44:15;95830.38;;;27.43;40.02
21182;BME280;10749;46.296;7.524;2023-10-08T11:46:44;95830.25;;;27.60;40.02
21182;BME280;10749;46.296;7.524;2023-10-08T11:49:10;95824.34;;;27.73;39.88
21182;BME280;10749;46.296;7.524;2023-10-08T11:51:43;95819.56;;;27.90;39.39
21182;BME280;10749;46.296;7.524;2023-10-08T11:54:09;95819.88;;;28.04;39.12
21182;BME280;10749;46.296;7.524;2023-10-08T11:56:37;95813.44;;;28.15;39.15
21182;BME280;10749;46.296;7.524;2023-10-08T11:59:04;95811.84;;;28.29;39.00
21182;BME280;10749;46.296;7.524;2023-10-08T12:01:34;95801.84;;;28.44;38.96
21182;BME280;10749;46.296;7.524;2023-10-08T12:04:01;95802.91;;;28.54;37.93
21182;BME280;10749;46.296;7.524;2023-10-08T12:06:26;95803.81;;;28.69;38.31
21182;BME280;10749;46.296;7.524;2023-10-08T12:08:55;95800.81;;;28.76;37.62
21182;BME280;10749;46.296;7.524;2023-10-08T12:11:26;95795.38;;;28.81;37.54
21182;BME280;10749;46.296;7.524;2023-10-08T12:14:00;95786.13;;;28.87;37.18
21182;BME280;10749;46.296;7.524;2023-10-08T12:16:26;95800.03;;;28.96;36.88
21182;BME280;10749;46.296;7.524;2023-10-08T12:18:55;95798.66;;;29.08;36.58
21182;BME280;10749;46.296;7.524;2023-10-08T12:21:27;95789.41;;;29.09;36.01
21182;BME280;10749;46.296;7.524;2023-10-08T12:23:59;95789.94;;;29.16;36.50
21182;BME280;10749;46.296;7.524;2023-10-08T12:26:26;95774.16;;;29.23;36.09
21182;BME280;10749;46.296;7.524;2023-10-08T12:28:51;95781.78;;;29.31;35.77
21182;BME280;10749;46.296;7.524;2023-10-08T12:31:19;95782.31;;;29.44;35.51
21182;BME280;10749;46.296;7.524;2023-10-08T12:33:49;95773.59;;;29.47;35.10
21182;BME280;10749;46.296;7.524;2023-10-08T12:36:18;95768.13;;;29.52;34.87
21182;BME280;10749;46.296;7.524;2023-10-08T12:38:48;95780.13;;;29.56;34.74
21182;BME280;10749;46.296;7.524;2023-10-08T12:41:13;95776.31;;;29.57;34.36
21182;BME280;10749;46.296;7.524;2023-10-08T12:43:40;95776.31;;;29.57;33.75
21182;BME280;10749;46.296;7.524;2023-10-08T12:46:11;95763.19;;;29.54;33.47
21182;BME280;10749;46.296;7.524;2023-10-08T12:48:43;95767.81;;;29.58;33.48
21182;BME280;10749;46.296;7.524;2023-10-08T12:51:09;95761.28;;;29.64;33.00
21182;BME280;10749;46.296;7.524;2023-10-08T12:53:36;95762.88;;;29.75;34.38
21182;BME280;10749;46.296;7.524;2023-10-08T12:56:09;95757.09;;;29.82;34.57
21182;BME280;10749;46.296;7.524;2023-10-08T12:58:41;95758.75;;;29.88;34.46
21182;BME280;10749;46.296;7.524;2023-10-08T13:01:09;95755.72;;;29.95;34.25
21182;BME280;10749;46.296;7.524;2023-10-08T13:03:36;95756.53;;;29.95;33.73
21182;BME280;10749;46.296;7.524;2023-10-08T13:06:09;95752.69;;;30.06;33.89
21182;BME280;10749;46.296;7.524;2023-10-08T13:08:40;95754.84;;;30.14;33.25
21182;BME280;10749;46.296;7.524;2023-10-08T13:11:06;95754.28;;;30.17;32.97
21182;BME280;10749;46.296;7.524;2023-10-08T13:13:31;95749.66;;;30.13;32.43
21182;BME280;10749;46.296;7.524;2023-10-08T13:16:01;95751.53;;;30.22;32.44
21182;BME280;10749;46.296;7.524;2023-10-08T13:18:32;95754.19;;;30.33;33.74
21182;BME280;10749;46.296;7.524;2023-10-08T13:20:58;95742.16;;;30.39;33.35
21182;BME280;10749;46.296;7.524;2023-10-08T13:23:23;95737.75;;;30.43;32.31
21182;BME280;10749;46.296;7.524;2023-10-08T13:25:50;95734.47;;;30.46;32.06
21182;BME280;10749;46.296;7.524;2023-10-08T13:28:22;95733.63;;;30.50;32.47